Hampshire Downs, United Kingdom
Current Conditions -  °F | °C
As of 5:50 PM on Sunday 25 Jan 2015 (Local Time) from EGVO Reporting Station
Broken Clouds Broken Clouds  
Wind Chill: 38°   Ceiling: 1600
Heat Index: 45°   Visibility: 6mi
Dew Point: 37°   Wind: 13mph
Humidity: 76%   Direction: 230°SW
Pressure: 30.33"   Gusts: NA
Location:  51.3°N, 1.2°W
Report Text: EGVO 251750Z 23011KT 9999 BKN016 BKN120 07/03 Q1027 WHT
Loading
Personal Weather Stations






























Interactive Weather Map New forecast layout! Learn more

10-Day Weather Forecast

Advertisements
Track Severe Weather on mobile